createdAt,value
2024-03-15T00:01:24.186Z,84.99
2024-03-15T00:04:26.974Z,85.60
2024-03-15T00:07:30.456Z,85.55
2024-03-15T00:10:33.233Z,85.12
2024-03-15T00:13:36.046Z,84.65
2024-03-15T00:16:38.936Z,84.25
2024-03-15T00:19:42.350Z,84.00
2024-03-15T00:22:45.174Z,84.54
2024-03-15T00:25:48.011Z,84.97
2024-03-15T00:28:50.849Z,84.19
2024-03-15T00:31:53.650Z,84.70
2024-03-15T00:34:56.470Z,84.01
2024-03-15T00:37:59.305Z,83.96
2024-03-15T00:41:02.046Z,84.15
2024-03-15T00:44:06.097Z,84.82
2024-03-15T00:47:08.902Z,84.35
2024-03-15T00:50:12.014Z,84.56
2024-03-15T00:53:14.818Z,84.49
2024-03-15T00:56:17.575Z,84.70
2024-03-15T00:59:21.472Z,83.53
2024-03-15T01:02:25.788Z,84.17
2024-03-15T01:05:29.901Z,84.26
2024-03-15T01:08:32.888Z,84.59
2024-03-15T01:11:35.680Z,85.21
2024-03-15T01:14:42.559Z,85.30
2024-03-15T01:17:49.392Z,86.52
2024-03-15T01:20:56.516Z,87.45
2024-03-15T01:24:05.880Z,86.25
2024-03-15T01:27:18.100Z,85.19
2024-03-15T01:30:32.778Z,84.54
2024-03-15T01:33:38.187Z,84.53
2024-03-15T01:36:44.899Z,84.43
2024-03-15T01:39:50.586Z,83.99
2024-03-15T01:42:56.721Z,84.41
2024-03-15T01:46:02.733Z,84.98
2024-03-15T01:49:07.460Z,84.69
2024-03-15T01:52:10.709Z,85.28
2024-03-15T01:55:13.670Z,85.12
2024-03-15T01:58:16.593Z,85.08
2024-03-15T02:01:19.476Z,84.92
2024-03-15T02:04:22.476Z,84.66
2024-03-15T02:07:28.551Z,84.70
2024-03-15T02:10:31.677Z,84.26
2024-03-15T02:13:34.993Z,84.44
2024-03-15T02:16:38.502Z,84.68
2024-03-15T02:19:41.596Z,83.63
2024-03-15T02:22:45.441Z,83.44
2024-03-15T02:25:48.394Z,83.15
2024-03-15T02:28:51.176Z,82.74
2024-03-15T02:31:54.206Z,82.66
2024-03-15T02:34:57.255Z,81.72
2024-03-15T02:38:00.503Z,82.43
2024-03-15T02:41:06.990Z,82.61
2024-03-15T02:44:10.394Z,81.27
2024-03-15T02:47:13.271Z,80.54
2024-03-15T02:50:16.379Z,80.41
2024-03-15T02:53:20.236Z,80.49
2024-03-15T02:56:23.104Z,80.13
2024-03-15T02:59:26.905Z,79.24
2024-03-15T03:02:29.994Z,80.01
2024-03-15T03:05:32.915Z,79.84
2024-03-15T03:08:36.968Z,80.74
2024-03-15T03:11:39.887Z,80.77
2024-03-15T03:14:43.581Z,80.72
2024-03-15T03:17:47.218Z,81.20
2024-03-15T03:20:50.134Z,80.91
2024-03-15T03:23:58.275Z,81.60
2024-03-15T03:27:01.539Z,81.29
2024-03-15T03:30:04.946Z,81.96
2024-03-15T03:33:07.985Z,81.71
2024-03-15T03:36:11.030Z,81.72
2024-03-15T03:39:15.169Z,80.87
2024-03-15T03:42:21.352Z,81.53
2024-03-15T03:45:24.606Z,81.60
2024-03-15T03:48:28.081Z,81.93
2024-03-15T03:51:31.017Z,82.40
2024-03-15T03:54:33.953Z,82.06
2024-03-15T03:57:44.490Z,82.85
2024-03-15T04:00:48.958Z,82.66
2024-03-15T04:03:51.998Z,82.87
2024-03-15T04:06:55.150Z,83.05
2024-03-15T04:09:58.048Z,83.48
2024-03-15T04:13:01.025Z,83.33
2024-03-15T04:16:05.441Z,83.24
2024-03-15T04:19:09.902Z,83.06
2024-03-15T04:22:14.300Z,83.46
2024-03-15T04:25:18.148Z,84.01
2024-03-15T04:28:21.148Z,84.20
2024-03-15T04:31:24.009Z,83.90
2024-03-15T04:34:26.970Z,84.07
2024-03-15T04:37:29.993Z,84.61
2024-03-15T04:40:32.993Z,84.30
2024-03-15T04:43:36.078Z,84.59
2024-03-15T04:46:39.090Z,84.84
2024-03-15T04:49:41.933Z,83.98
2024-03-15T04:52:45.006Z,83.90
2024-03-15T04:55:48.165Z,83.66
2024-03-15T04:58:51.011Z,83.73
2024-03-15T05:01:53.833Z,83.60
2024-03-15T05:04:56.785Z,83.73
2024-03-15T05:07:59.697Z,83.44
2024-03-15T05:11:03.245Z,83.02
2024-03-15T05:14:06.279Z,83.23
2024-03-15T05:17:09.229Z,83.56
2024-03-15T05:20:14.602Z,83.69
2024-03-15T05:23:18.793Z,84.33
2024-03-15T05:26:21.979Z,83.89
2024-03-15T05:29:24.994Z,83.91
2024-03-15T05:32:29.205Z,84.63
2024-03-15T05:35:32.016Z,84.38
2024-03-15T05:38:35.205Z,84.99
2024-03-15T05:41:38.079Z,85.23
2024-03-15T05:44:40.948Z,84.61
2024-03-15T05:47:45.117Z,84.66
2024-03-15T05:50:48.228Z,84.58
2024-03-15T05:53:51.320Z,85.60
2024-03-15T05:56:54.556Z,84.79
2024-03-15T05:59:57.430Z,84.65
2024-03-15T06:03:04.089Z,83.45
2024-03-15T06:06:09.900Z,83.40
2024-03-15T06:09:14.353Z,83.01
2024-03-15T06:12:17.455Z,82.99
2024-03-15T06:15:23.006Z,82.74
2024-03-15T06:18:26.299Z,81.71
2024-03-15T06:21:29.331Z,81.85
2024-03-15T06:24:35.186Z,82.43
2024-03-15T06:27:40.519Z,82.27
2024-03-15T06:30:46.972Z,83.62
2024-03-15T06:33:51.247Z,83.36
2024-03-15T06:36:55.839Z,83.18
2024-03-15T06:40:05.867Z,83.08
2024-03-15T06:43:15.350Z,82.89
2024-03-15T06:46:25.312Z,83.18
2024-03-15T06:49:44.998Z,83.27
2024-03-15T06:52:48.859Z,83.60
2024-03-15T06:55:52.191Z,82.92
2024-03-15T06:58:55.142Z,81.91
2024-03-15T07:01:57.971Z,80.61
2024-03-15T07:05:00.857Z,79.54
2024-03-15T07:08:07.344Z,76.88
2024-03-15T07:11:10.256Z,74.34
2024-03-15T07:14:14.092Z,70.33
2024-03-15T07:17:17.219Z,66.86
2024-03-15T07:20:20.533Z,62.91
2024-03-15T07:23:23.758Z,57.69
2024-03-15T07:26:26.836Z,53.22
2024-03-15T07:29:29.968Z,49.36
2024-03-15T07:32:32.987Z,49.08
2024-03-15T07:35:35.919Z,50.63
2024-03-15T07:38:38.900Z,51.31
2024-03-15T07:41:41.914Z,51.10
2024-03-15T07:44:44.826Z,53.70
2024-03-15T07:47:47.749Z,56.40
2024-03-15T07:50:50.907Z,58.00
2024-03-15T07:53:54.015Z,58.21
2024-03-15T07:56:57.134Z,58.49
2024-03-15T08:00:00.875Z,59.84
2024-03-15T08:03:04.003Z,60.35
2024-03-15T08:06:07.843Z,60.15
2024-03-15T08:09:12.946Z,60.66
2024-03-15T08:12:16.585Z,60.47
2024-03-15T08:15:19.859Z,61.60
2024-03-15T08:18:23.568Z,61.95
2024-03-15T08:21:26.895Z,62.53
2024-03-15T08:24:30.068Z,62.88
2024-03-15T08:27:33.360Z,62.14
2024-03-15T08:30:39.052Z,62.40
2024-03-15T08:33:42.601Z,63.14
2024-03-15T08:36:45.732Z,61.92
2024-03-15T08:39:48.718Z,61.81
2024-03-15T08:42:51.890Z,62.02
2024-03-15T08:45:55.789Z,62.50
2024-03-15T08:48:58.826Z,61.92
2024-03-15T08:52:01.674Z,60.98
2024-03-15T08:55:04.634Z,60.95
2024-03-15T08:58:08.221Z,60.45
2024-03-15T09:01:12.282Z,61.47
2024-03-15T09:04:17.039Z,60.84
2024-03-15T09:07:23.089Z,61.92
2024-03-15T09:10:26.330Z,59.92
2024-03-15T09:13:30.729Z,60.02
2024-03-15T09:16:36.219Z,59.52
2024-03-15T09:19:39.041Z,59.32
2024-03-15T09:22:42.240Z,59.69
2024-03-15T09:25:45.736Z,57.79
2024-03-15T09:28:50.322Z,56.44
2024-03-15T09:32:07.397Z,55.61
2024-03-15T09:35:18.546Z,55.42
2024-03-15T09:38:23.430Z,55.50
2024-03-15T09:41:26.281Z,54.02
2024-03-15T09:44:29.326Z,55.75
2024-03-15T09:47:32.265Z,54.79
2024-03-15T09:50:35.143Z,55.14
2024-03-15T09:53:38.186Z,56.65
2024-03-15T09:56:41.084Z,57.04
2024-03-15T09:59:44.027Z,57.42
2024-03-15T10:02:46.925Z,60.21
2024-03-15T10:05:49.888Z,59.18
2024-03-15T10:08:52.867Z,60.55
2024-03-15T10:11:55.793Z,64.85
2024-03-15T10:14:59.212Z,66.04
2024-03-15T10:18:02.228Z,68.69
2024-03-15T10:21:06.076Z,68.64
2024-03-15T10:24:11.855Z,68.65
2024-03-15T10:27:15.974Z,69.47
2024-03-15T10:30:19.084Z,70.09
2024-03-15T10:33:22.530Z,71.06
2024-03-15T10:36:25.557Z,73.80
2024-03-15T10:39:28.605Z,74.42
2024-03-15T10:42:31.874Z,74.60
2024-03-15T10:45:34.841Z,71.39
2024-03-15T10:48:38.207Z,69.37
2024-03-15T10:51:41.145Z,68.12
2024-03-15T10:54:44.217Z,68.89
2024-03-15T10:57:47.176Z,68.12
2024-03-15T11:00:50.293Z,66.73
2024-03-15T11:03:53.718Z,67.95
2024-03-15T11:06:56.779Z,64.78
2024-03-15T11:10:00.813Z,63.90
2024-03-15T11:13:04.816Z,63.69
2024-03-15T11:16:21.321Z,63.89
2024-03-15T11:19:24.536Z,63.67
2024-03-15T11:22:27.639Z,63.05
2024-03-15T11:25:30.836Z,63.00
2024-03-15T11:28:33.813Z,60.88
2024-03-15T11:31:37.348Z,61.26
2024-03-15T11:34:41.130Z,60.11
2024-03-15T11:37:44.086Z,59.73
2024-03-15T11:40:47.046Z,59.11
2024-03-15T11:43:51.121Z,58.23
2024-03-15T11:46:54.038Z,57.47
2024-03-15T11:49:57.538Z,55.98
2024-03-15T11:53:00.613Z,53.70
2024-03-15T11:56:04.436Z,53.47
2024-03-15T11:59:07.864Z,54.32
2024-03-15T12:02:11.088Z,52.52
2024-03-15T12:05:14.192Z,53.71
2024-03-15T12:08:17.305Z,52.20
2024-03-15T12:11:20.883Z,52.08
2024-03-15T12:14:23.874Z,52.07
2024-03-15T12:17:27.618Z,53.72
2024-03-15T12:20:31.527Z,51.46
2024-03-15T12:23:37.731Z,51.03
2024-03-15T12:26:41.275Z,50.98
2024-03-15T12:29:44.520Z,51.40
2024-03-15T12:32:47.444Z,51.39
2024-03-15T12:35:51.531Z,50.17
2024-03-15T12:38:54.482Z,50.87
2024-03-15T12:41:57.370Z,50.85
2024-03-15T12:45:00.226Z,52.69
2024-03-15T12:48:03.281Z,51.55
2024-03-15T12:51:07.595Z,50.86
2024-03-15T12:54:10.710Z,50.64
2024-03-15T12:57:16.391Z,51.06
2024-03-15T13:00:20.988Z,50.55
2024-03-15T13:03:24.223Z,49.63
2024-03-15T13:06:27.239Z,48.78
2024-03-15T13:09:30.272Z,48.40
2024-03-15T13:12:33.374Z,48.81
2024-03-15T13:15:37.258Z,48.98
2024-03-15T13:18:41.119Z,47.75
2024-03-15T13:21:44.345Z,48.73
2024-03-15T13:24:47.377Z,49.35
2024-03-15T13:27:51.193Z,49.42
2024-03-15T13:30:54.113Z,48.63
2024-03-15T13:33:57.227Z,48.14
2024-03-15T13:37:00.194Z,49.57
2024-03-15T13:40:10.059Z,50.39
2024-03-15T13:43:13.860Z,50.81
2024-03-15T13:46:17.498Z,51.54
2024-03-15T13:49:20.584Z,51.12
2024-03-15T13:52:23.669Z,49.81
2024-03-15T13:55:26.597Z,49.75
2024-03-15T13:58:29.507Z,49.43
2024-03-15T14:01:32.503Z,50.14
2024-03-15T14:04:35.676Z,51.59
2024-03-15T14:07:38.788Z,51.83
2024-03-15T14:10:41.894Z,52.87
2024-03-15T14:13:44.934Z,54.08
2024-03-15T14:16:48.215Z,53.43
2024-03-15T14:19:51.154Z,53.61
2024-03-15T14:22:55.735Z,52.57
2024-03-15T14:25:58.783Z,52.72
2024-03-15T14:29:01.846Z,52.69
2024-03-15T14:32:06.185Z,54.21
2024-03-15T14:35:09.356Z,53.51
2024-03-15T14:38:12.531Z,51.69
2024-03-15T14:41:17.769Z,52.54
2024-03-15T14:44:20.780Z,51.74
2024-03-15T14:47:23.934Z,51.70
2024-03-15T14:50:29.264Z,49.77
2024-03-15T14:53:32.433Z,50.38
2024-03-15T14:56:35.373Z,50.02
2024-03-15T14:59:38.202Z,49.91
2024-03-15T15:02:41.324Z,50.81
2024-03-15T15:05:44.295Z,51.54
2024-03-15T15:08:47.293Z,52.27
2024-03-15T15:11:51.280Z,51.92
2024-03-15T15:14:54.457Z,53.23
2024-03-15T15:17:57.556Z,54.69
2024-03-15T15:21:00.585Z,55.66
2024-03-15T15:24:03.433Z,55.76
2024-03-15T15:27:06.453Z,56.63
2024-03-15T15:30:10.405Z,57.36
2024-03-15T15:33:13.492Z,57.49
2024-03-15T15:36:16.319Z,58.07
2024-03-15T15:39:19.453Z,59.45
2024-03-15T15:42:22.556Z,60.51
2024-03-15T15:45:27.984Z,60.40
2024-03-15T15:48:31.966Z,57.57
2024-03-15T15:51:37.021Z,58.57
2024-03-15T15:54:40.481Z,57.58
2024-03-15T15:57:43.604Z,57.52
2024-03-15T16:00:47.542Z,58.03
2024-03-15T16:03:50.653Z,58.36
2024-03-15T16:06:56.994Z,58.91
2024-03-15T16:09:59.989Z,59.30
2024-03-15T16:13:03.193Z,59.87
2024-03-15T16:16:06.316Z,60.27
2024-03-15T16:19:11.665Z,60.46
2024-03-15T16:22:14.702Z,60.11
2024-03-15T16:25:17.568Z,58.06
2024-03-15T16:28:20.437Z,59.10
2024-03-15T16:31:23.498Z,59.37
2024-03-15T16:34:26.398Z,58.38
2024-03-15T16:37:29.319Z,59.75
2024-03-15T16:40:32.229Z,60.11
2024-03-15T16:43:35.087Z,60.30
2024-03-15T16:46:38.099Z,60.87
2024-03-15T16:49:40.941Z,60.71
2024-03-15T16:52:43.801Z,61.38
2024-03-15T16:55:50.552Z,60.54
2024-03-15T16:58:55.286Z,60.55
2024-03-15T17:01:58.185Z,59.66
2024-03-15T17:05:01.063Z,60.72
2024-03-15T17:08:03.973Z,60.38
2024-03-15T17:11:08.113Z,59.68
2024-03-15T17:14:11.324Z,59.38
2024-03-15T17:17:15.659Z,59.28
2024-03-15T17:20:19.895Z,56.81
2024-03-15T17:23:22.848Z,57.21
2024-03-15T17:26:25.678Z,57.44
2024-03-15T17:29:28.530Z,57.35
2024-03-15T17:32:31.423Z,56.65
2024-03-15T17:35:34.437Z,57.41
2024-03-15T17:38:37.338Z,57.63
2024-03-15T17:41:40.432Z,58.39
2024-03-15T17:44:43.301Z,58.79
2024-03-15T17:47:46.201Z,59.57
2024-03-15T17:50:49.193Z,59.14
2024-03-15T17:53:52.016Z,58.20
2024-03-15T17:56:55.149Z,58.42
2024-03-15T17:59:58.143Z,58.16
2024-03-15T18:03:04.324Z,57.85
2024-03-15T18:06:07.896Z,57.71
2024-03-15T18:09:10.741Z,57.83
2024-03-15T18:12:13.740Z,58.01
2024-03-15T18:15:17.394Z,58.54
2024-03-15T18:18:20.637Z,58.95
2024-03-15T18:21:24.138Z,59.19
2024-03-15T18:24:29.080Z,59.38
2024-03-15T18:27:32.216Z,61.21
2024-03-15T18:30:35.159Z,61.18
2024-03-15T18:33:38.242Z,59.95
2024-03-15T18:36:41.148Z,59.42
2024-03-15T18:39:44.708Z,59.09
2024-03-15T18:42:47.604Z,59.69
2024-03-15T18:45:50.639Z,59.00
2024-03-15T18:48:53.618Z,59.75
2024-03-15T18:51:57.373Z,59.89
2024-03-15T18:55:00.288Z,60.71
2024-03-15T18:58:05.574Z,61.93
2024-03-15T19:01:11.835Z,62.12
2024-03-15T19:04:14.777Z,62.12
2024-03-15T19:07:17.589Z,62.14
2024-03-15T19:10:21.637Z,62.22
2024-03-15T19:13:24.494Z,62.55
2024-03-15T19:16:27.357Z,61.76
2024-03-15T19:19:30.259Z,63.03
2024-03-15T19:22:33.206Z,63.30
2024-03-15T19:25:36.077Z,62.89
2024-03-15T19:28:38.913Z,63.35
2024-03-15T19:31:41.738Z,63.48
2024-03-15T19:34:44.586Z,63.93
2024-03-15T19:37:48.023Z,64.27
2024-03-15T19:40:51.046Z,64.10
2024-03-15T19:43:53.894Z,64.47
2024-03-15T19:46:56.818Z,63.32
2024-03-15T19:49:59.705Z,62.72
2024-03-15T19:53:02.580Z,62.29
2024-03-15T19:56:05.953Z,62.33
2024-03-15T19:59:14.512Z,62.03
2024-03-15T20:02:19.360Z,61.95
2024-03-15T20:05:22.383Z,61.50
2024-03-15T20:08:25.239Z,61.94
2024-03-15T20:11:28.231Z,61.93
2024-03-15T20:14:31.387Z,62.71
2024-03-15T20:17:34.580Z,63.36
2024-03-15T20:20:37.414Z,63.59
2024-03-15T20:23:40.253Z,64.53
2024-03-15T20:26:46.424Z,65.34
2024-03-15T20:29:49.562Z,66.09
2024-03-15T20:32:52.645Z,66.51
2024-03-15T20:35:56.996Z,67.27
2024-03-15T20:39:01.238Z,67.63
2024-03-15T20:42:04.203Z,68.24
2024-03-15T20:45:07.611Z,68.54
2024-03-15T20:48:10.481Z,68.90
2024-03-15T20:51:14.894Z,69.00
2024-03-15T20:54:17.939Z,69.39
2024-03-15T20:57:20.820Z,69.35
2024-03-15T21:00:24.278Z,69.49
2024-03-15T21:03:27.418Z,69.71
2024-03-15T21:06:31.563Z,73.84
2024-03-15T21:09:34.651Z,77.63
2024-03-15T21:12:38.726Z,79.59
2024-03-15T21:15:41.917Z,82.50
2024-03-15T21:18:44.965Z,83.38
2024-03-15T21:21:50.054Z,84.66
2024-03-15T21:24:53.203Z,85.35
2024-03-15T21:27:58.083Z,86.70
2024-03-15T21:31:01.714Z,87.92
2024-03-15T21:34:04.811Z,88.69
2024-03-15T21:37:08.112Z,87.64
2024-03-15T21:40:15.766Z,88.11
2024-03-15T21:43:18.665Z,88.33
2024-03-15T21:46:25.563Z,89.17
2024-03-15T21:49:28.473Z,89.58
2024-03-15T21:52:31.365Z,89.16
2024-03-15T21:55:34.253Z,89.44
2024-03-15T21:58:37.222Z,88.49
2024-03-15T22:01:40.876Z,88.79
2024-03-15T22:04:45.457Z,88.78
2024-03-15T22:07:48.571Z,88.11
2024-03-15T22:10:54.541Z,87.33
2024-03-15T22:13:57.644Z,87.70
2024-03-15T22:17:00.777Z,85.56
2024-03-15T22:20:06.966Z,85.59
2024-03-15T22:23:09.842Z,86.14
2024-03-15T22:26:12.850Z,86.55
2024-03-15T22:29:15.758Z,86.76
2024-03-15T22:32:19.264Z,87.77
2024-03-15T22:35:22.284Z,87.75
2024-03-15T22:38:25.641Z,85.06
2024-03-15T22:41:28.691Z,84.45
2024-03-15T22:44:31.601Z,82.96
2024-03-15T22:47:34.648Z,83.12
2024-03-15T22:50:37.530Z,83.60
2024-03-15T22:53:40.652Z,83.11
2024-03-15T22:56:43.785Z,83.18
2024-03-15T22:59:48.299Z,84.75
2024-03-15T23:02:54.268Z,82.32
2024-03-15T23:05:57.294Z,81.70
2024-03-15T23:09:00.446Z,83.20
2024-03-15T23:12:03.334Z,83.65
2024-03-15T23:15:10.019Z,83.10
2024-03-15T23:18:13.134Z,83.17
2024-03-15T23:21:17.562Z,83.45
2024-03-15T23:24:20.671Z,84.47
2024-03-15T23:27:25.286Z,85.02
2024-03-15T23:30:28.545Z,85.98
2024-03-15T23:33:31.693Z,85.62
2024-03-15T23:36:34.747Z,85.56
2024-03-15T23:39:37.896Z,85.18
2024-03-15T23:42:41.182Z,85.75
2024-03-15T23:45:44.050Z,85.65
2024-03-15T23:48:47.040Z,85.94
2024-03-15T23:51:51.133Z,83.49
2024-03-15T23:54:54.740Z,83.53
2024-03-15T23:57:57.841Z,83.55
